createdAt,value
2018-04-10T00:01:58.939Z,7.23
2018-04-10T00:04:26.500Z,7.73
2018-04-10T00:06:55.946Z,7.53
2018-04-10T00:09:24.216Z,7.65
2018-04-10T00:11:51.743Z,7.97
2018-04-10T00:14:19.271Z,7.75
2018-04-10T00:16:46.899Z,7.78
2018-04-10T00:19:14.422Z,7.20
2018-04-10T00:21:41.927Z,7.53
2018-04-10T00:24:10.750Z,7.20
2018-04-10T00:26:39.969Z,7.65
2018-04-10T00:29:07.502Z,7.55
2018-04-10T00:31:34.985Z,7.28
2018-04-10T00:34:02.559Z,6.80
2018-04-10T00:36:30.099Z,6.43
2018-04-10T00:38:57.606Z,7.25
2018-04-10T00:41:26.188Z,7.22
2018-04-10T00:43:53.735Z,7.22
2018-04-10T00:48:23.310Z,7.03
2018-04-10T00:50:51.579Z,7.07
2018-04-10T00:53:34.166Z,7.22
2018-04-10T00:56:01.838Z,7.25
2018-04-10T00:58:29.390Z,7.65
2018-04-10T01:00:57.710Z,7.83
2018-04-10T01:03:25.211Z,7.30
2018-04-10T01:05:58.783Z,7.90
2018-04-10T01:08:26.311Z,7.50
2018-04-10T01:10:53.780Z,8.10
2018-04-10T01:13:21.345Z,7.33
2018-04-10T01:15:48.895Z,7.00
2018-04-10T01:18:16.459Z,7.43
2018-04-10T01:20:44.012Z,7.45
2018-04-10T01:23:11.749Z,8.30
2018-04-10T01:25:39.271Z,8.13
2018-04-10T01:28:07.000Z,8.07
2018-04-10T01:30:35.372Z,7.80
2018-04-10T01:33:02.991Z,7.55
2018-04-10T01:35:30.536Z,7.68
2018-04-10T01:37:58.813Z,7.83
2018-04-10T01:40:27.106Z,7.80
2018-04-10T01:42:56.384Z,7.93
2018-04-10T01:45:23.979Z,8.07
2018-04-10T01:47:52.277Z,8.53
2018-04-10T01:50:20.756Z,8.60
2018-04-10T01:52:58.699Z,8.73
2018-04-10T01:55:26.259Z,8.93
2018-04-10T01:57:54.535Z,9.30
2018-04-10T02:00:22.111Z,9.32
2018-04-10T02:02:50.423Z,9.77
2018-04-10T02:05:40.416Z,9.10
2018-04-10T02:08:08.771Z,9.55
2018-04-10T02:10:36.319Z,9.90
2018-04-10T02:13:03.879Z,9.90
2018-04-10T02:15:31.369Z,10.30
2018-04-10T02:17:58.929Z,9.27
2018-04-10T02:20:26.462Z,9.90
2018-04-10T02:22:53.998Z,9.75
2018-04-10T02:25:22.502Z,9.45
2018-04-10T02:27:49.999Z,9.23
2018-04-10T02:30:17.608Z,9.55
2018-04-10T02:32:45.182Z,9.38
2018-04-10T02:35:12.694Z,9.30
2018-04-10T02:37:41.094Z,9.15
2018-04-10T02:40:08.613Z,8.80
2018-04-10T02:42:36.192Z,8.70
2018-04-10T02:45:03.711Z,8.82
2018-04-10T02:47:32.174Z,8.43
2018-04-10T02:49:59.719Z,8.68
2018-04-10T02:52:27.268Z,8.23
2018-04-10T02:54:54.995Z,8.70
2018-04-10T02:57:23.328Z,8.75
2018-04-10T02:59:50.893Z,8.20
2018-04-10T03:02:18.688Z,8.13
2018-04-10T03:04:46.607Z,8.50
2018-04-10T03:07:14.162Z,8.98
2018-04-10T03:09:41.673Z,8.80
2018-04-10T03:12:09.980Z,8.38
2018-04-10T03:14:38.664Z,8.55
2018-04-10T03:17:06.204Z,8.20
2018-04-10T03:19:33.715Z,8.05
2018-04-10T03:22:01.271Z,8.32
2018-04-10T03:24:28.984Z,8.53
2018-04-10T03:26:56.551Z,9.27
2018-04-10T03:29:24.202Z,8.85
2018-04-10T03:31:51.717Z,8.30
2018-04-10T03:34:24.662Z,8.65
2018-04-10T03:36:52.187Z,9.27
2018-04-10T03:39:19.699Z,9.32
2018-04-10T03:41:47.968Z,10.43
2018-04-10T03:44:15.479Z,11.10
2018-04-10T03:46:42.994Z,10.82
2018-04-10T03:49:10.871Z,9.80
2018-04-10T03:51:38.376Z,9.75
2018-04-10T03:54:05.884Z,9.83
2018-04-10T03:56:33.435Z,9.48
2018-04-10T03:59:00.962Z,9.88
2018-04-10T04:01:28.454Z,8.85
2018-04-10T04:03:55.960Z,8.98
2018-04-10T04:06:23.483Z,8.68
2018-04-10T04:08:51.055Z,9.23
2018-04-10T04:11:18.774Z,9.55
2018-04-10T04:13:46.352Z,9.40
2018-04-10T04:19:28.997Z,8.93
2018-04-10T06:15:58.223Z,9.18
2018-04-10T06:18:26.717Z,9.68
2018-04-10T06:20:54.194Z,9.32
2018-04-10T06:23:21.693Z,10.48
2018-04-10T06:25:57.261Z,10.10
2018-04-10T06:28:46.541Z,10.68
2018-04-10T06:31:14.018Z,10.43
2018-04-10T06:33:41.499Z,10.52
2018-04-10T06:36:09.722Z,10.68
2018-04-10T06:38:37.204Z,10.52
2018-04-10T06:41:04.678Z,10.35
2018-04-10T06:43:32.169Z,10.02
2018-04-10T06:48:53.102Z,10.43
2018-04-10T06:51:21.566Z,10.90
2018-04-10T06:53:49.104Z,10.63
2018-04-10T06:56:17.359Z,10.57
2018-04-10T06:58:46.928Z,11.10
2018-04-10T07:01:21.252Z,12.30
2018-04-10T07:03:48.771Z,12.13
2018-04-10T07:06:16.400Z,11.45
2018-04-10T07:08:44.728Z,11.10
2018-04-10T07:11:13.893Z,10.57
2018-04-10T07:13:41.472Z,10.87
2018-04-10T07:16:09.938Z,11.10
2018-04-10T07:18:37.519Z,10.90
2018-04-10T07:21:08.965Z,10.57
2018-04-10T07:23:41.859Z,11.50
2018-04-10T07:26:28.399Z,10.90
2018-04-10T07:28:57.716Z,11.38
2018-04-10T07:31:32.075Z,10.90
2018-04-10T07:34:01.459Z,12.13
2018-04-10T07:36:30.303Z,11.83
2018-04-10T07:38:59.485Z,11.65
2018-04-10T07:44:27.364Z,11.88
2018-04-10T07:50:00.652Z,13.27
2018-04-10T07:52:28.317Z,13.13
2018-04-10T07:54:57.664Z,13.00
2018-04-10T07:57:57.724Z,13.25
2018-04-10T08:03:29.548Z,13.50
2018-04-10T08:08:58.994Z,13.70
2018-04-10T08:11:31.887Z,12.37
2018-04-10T08:13:59.582Z,12.55
2018-04-10T08:16:29.784Z,11.38
2018-04-10T08:18:57.395Z,11.60
2018-04-10T08:21:28.274Z,12.15
2018-04-10T08:23:57.131Z,11.80
2018-04-10T08:26:27.493Z,12.80
2018-04-10T08:28:55.234Z,12.25
2018-04-10T08:31:30.789Z,13.32
2018-04-10T08:33:58.835Z,13.45
2018-04-10T08:36:27.267Z,13.15
2018-04-10T08:38:59.298Z,12.52
2018-04-10T08:41:27.804Z,11.50
2018-04-10T08:43:58.723Z,12.90
2018-04-10T08:46:26.292Z,13.27
2018-04-10T08:49:00.023Z,12.98
2018-04-10T08:51:27.732Z,11.88
2018-04-10T08:53:56.668Z,11.90
2018-04-10T08:56:27.525Z,12.05
2018-04-10T09:02:12.099Z,13.25
2018-04-10T09:28:32.408Z,9.52
2018-04-10T09:31:11.592Z,9.25
2018-04-10T09:33:39.073Z,8.75
2018-04-10T09:36:06.591Z,8.73
2018-04-10T09:38:44.423Z,8.27
2018-04-10T09:41:34.629Z,7.78
2018-04-10T09:44:02.204Z,8.07
2018-04-10T09:55:57.908Z,7.50
2018-04-10T10:14:28.285Z,6.70
2018-04-10T10:25:58.368Z,7.33
2018-04-10T10:31:30.814Z,7.70
2018-04-10T10:33:59.656Z,8.07
2018-04-10T10:36:27.313Z,8.20
2018-04-10T10:41:57.837Z,7.33
2018-04-10T10:44:28.621Z,8.00
2018-04-10T10:46:58.107Z,8.43
2018-04-10T10:49:28.920Z,8.97
2018-04-10T10:51:58.064Z,8.10
2018-04-10T10:54:33.651Z,9.02
2018-04-10T10:57:01.667Z,9.53
2018-04-10T10:59:29.349Z,9.75
2018-04-10T11:01:59.888Z,8.50
2018-04-10T11:04:27.410Z,9.40
2018-04-10T11:07:03.396Z,9.50
2018-04-10T11:09:49.339Z,9.57
2018-04-10T11:12:21.437Z,9.00
2018-04-10T11:14:55.573Z,8.50
2018-04-10T11:17:27.412Z,9.30
2018-04-10T11:19:57.143Z,9.37
2018-04-10T11:22:27.841Z,9.90
2018-04-10T11:24:57.398Z,9.73
2018-04-10T11:27:29.105Z,9.43
2018-04-10T11:30:00.835Z,10.70
2018-04-10T11:32:29.124Z,10.17
2018-04-10T11:34:57.768Z,8.88
2018-04-10T11:43:21.695Z,10.20
2018-04-10T11:45:49.522Z,10.43
2018-04-10T11:48:28.054Z,11.13
2018-04-10T12:04:27.307Z,11.52
2018-04-10T12:07:14.680Z,9.98
2018-04-10T12:09:43.069Z,9.38
2018-04-10T12:12:27.224Z,9.48
2018-04-10T12:14:58.029Z,10.07
2018-04-10T12:28:13.446Z,9.90
2018-04-10T12:30:41.013Z,9.18
2018-04-10T12:36:01.601Z,12.20
2018-04-10T12:38:29.112Z,10.77
2018-04-10T12:40:57.383Z,11.27
2018-04-10T12:43:25.055Z,11.05
2018-04-10T12:45:52.576Z,9.10
2018-04-10T12:48:20.094Z,10.45
2018-04-10T12:50:47.604Z,11.20
2018-04-10T12:53:36.689Z,11.63
2018-04-10T13:16:54.947Z,10.02
2018-04-10T13:19:36.602Z,10.23
2018-04-10T13:22:07.020Z,9.73
2018-04-10T13:24:35.455Z,10.77
2018-04-10T13:27:03.014Z,10.57
2018-04-10T13:29:36.762Z,9.60
2018-04-10T13:38:02.049Z,11.90
2018-04-10T13:40:29.584Z,11.45
2018-04-10T13:46:03.915Z,11.00
2018-04-10T13:51:12.980Z,10.82
2018-04-10T14:08:58.401Z,10.98
2018-04-10T14:11:27.943Z,11.88
2018-04-10T14:13:59.910Z,10.38
2018-04-10T15:02:31.067Z,14.57
2018-04-10T15:04:58.606Z,13.43
2018-04-10T15:07:26.139Z,14.30
2018-04-10T15:09:54.786Z,12.47
2018-04-10T15:12:27.052Z,9.60
2018-04-10T15:14:59.062Z,11.23
2018-04-10T15:17:29.676Z,12.70
2018-04-10T15:20:10.404Z,12.80
2018-04-10T15:23:03.101Z,13.57
2018-04-10T16:00:23.146Z,6.20
2018-04-10T16:02:55.200Z,6.03
2018-04-10T16:05:29.690Z,5.35
2018-04-10T16:10:58.430Z,3.95
2018-04-10T16:13:26.767Z,4.37
2018-04-10T16:15:54.245Z,4.87
2018-04-10T16:18:22.542Z,4.60
2018-04-10T16:20:50.020Z,4.40
2018-04-10T16:23:17.544Z,4.30
2018-04-10T16:28:42.092Z,4.05
2018-04-10T16:31:09.573Z,4.40
2018-04-10T16:33:41.049Z,4.65
2018-04-10T16:36:13.742Z,5.10
2018-04-10T16:38:43.916Z,4.65
2018-04-10T16:41:16.176Z,4.93
2018-04-10T16:43:55.210Z,4.83
2018-04-10T16:46:23.673Z,5.10
2018-04-10T16:48:57.689Z,5.30
2018-04-10T16:51:25.556Z,5.20
2018-04-10T16:54:05.429Z,4.55
2018-04-10T16:56:32.995Z,5.50
2018-04-10T16:59:00.932Z,5.05
2018-04-10T17:01:36.150Z,5.70
2018-04-10T17:04:04.467Z,5.50
2018-04-10T17:06:32.053Z,5.82
2018-04-10T17:08:59.562Z,5.80
2018-04-10T17:11:29.159Z,5.97
2018-04-10T17:13:56.869Z,6.07
2018-04-10T17:16:25.148Z,5.95
2018-04-10T17:18:53.537Z,6.07
2018-04-10T17:21:27.322Z,6.12
2018-04-10T17:23:55.041Z,5.85
2018-04-10T17:26:26.923Z,5.82
2018-04-10T17:28:58.204Z,6.03
2018-04-10T17:31:26.589Z,6.00
2018-04-10T17:33:57.784Z,8.85
2018-04-10T17:36:26.276Z,6.30
2018-04-10T17:38:54.834Z,6.60
2018-04-10T17:41:27.599Z,6.37
2018-04-10T17:44:01.184Z,10.10
2018-04-10T17:46:29.833Z,7.85
2018-04-10T17:48:59.520Z,7.10
2018-04-10T17:51:30.976Z,7.05
2018-04-10T17:54:03.880Z,7.25
2018-04-10T17:56:31.457Z,7.28
2018-04-10T17:59:03.567Z,7.85
2018-04-10T18:01:34.093Z,7.90
2018-04-10T18:04:01.947Z,7.80
2018-04-10T18:06:32.013Z,7.18
2018-04-10T18:08:59.755Z,8.18
2018-04-10T18:11:31.409Z,7.62
2018-04-10T18:14:02.183Z,8.05
2018-04-10T18:16:30.497Z,7.97
2018-04-10T18:18:58.627Z,7.87
2018-04-10T18:21:26.248Z,7.95
2018-04-10T18:23:53.894Z,8.30
2018-04-10T18:26:27.965Z,8.18
2018-04-10T18:28:56.594Z,7.85
2018-04-10T18:31:24.160Z,9.15
2018-04-10T18:33:52.783Z,9.13
2018-04-10T18:36:20.403Z,8.85
2018-04-10T18:38:49.775Z,9.10
2018-04-10T18:41:18.280Z,9.60
2018-04-10T18:43:52.191Z,9.25
2018-04-10T18:46:29.543Z,9.33
2018-04-10T18:48:58.448Z,9.95
2018-04-10T18:51:29.577Z,9.95
2018-04-10T18:53:57.322Z,9.75
2018-04-10T18:56:25.995Z,9.50
2018-04-10T18:58:55.471Z,8.75
2018-04-10T19:01:23.068Z,8.95
2018-04-10T19:03:50.661Z,9.50
2018-04-10T19:06:22.703Z,8.68
2018-04-10T19:08:50.866Z,8.50
2018-04-10T19:11:23.795Z,8.77
2018-04-10T19:13:51.863Z,8.43
2018-04-10T19:16:21.465Z,8.70
2018-04-10T19:21:47.337Z,8.85
2018-04-10T19:24:14.898Z,9.27
2018-04-10T19:26:43.142Z,9.17
2018-04-10T19:29:11.182Z,8.65
2018-04-10T19:31:38.978Z,8.27
2018-04-10T19:34:06.490Z,8.90
2018-04-10T19:36:34.730Z,8.75
2018-04-10T19:39:19.319Z,9.90
2018-04-10T19:41:46.811Z,8.80
2018-04-10T19:44:15.054Z,9.57
2018-04-10T19:46:42.573Z,9.27
2018-04-10T19:49:10.844Z,10.00
2018-04-10T19:51:38.451Z,10.65
2018-04-10T19:54:06.812Z,10.15
2018-04-10T19:56:38.368Z,9.60
2018-04-10T19:59:05.954Z,9.65
2018-04-10T20:01:33.458Z,9.32
2018-04-10T20:04:01.117Z,9.33
2018-04-10T20:06:28.646Z,9.02
2018-04-10T20:08:56.370Z,9.10
2018-04-10T20:11:24.087Z,9.33
2018-04-10T20:13:52.421Z,8.40
2018-04-10T20:16:20.720Z,8.73
2018-04-10T20:18:48.226Z,8.35
2018-04-10T20:21:15.736Z,7.63
2018-04-10T20:23:43.230Z,6.70
2018-04-10T20:26:10.709Z,6.00
2018-04-10T20:28:38.224Z,5.93
2018-04-10T20:31:05.710Z,5.47
2018-04-10T20:33:33.221Z,5.72
2018-04-10T20:36:00.923Z,4.82
2018-04-10T20:38:28.402Z,4.40
2018-04-10T20:40:55.857Z,3.75
2018-04-10T20:43:23.344Z,3.62
2018-04-10T20:45:50.814Z,3.00
2018-04-10T20:48:32.459Z,3.60
2018-04-10T20:51:00.124Z,3.00
2018-04-10T20:53:28.395Z,3.00
2018-04-10T20:55:55.969Z,2.95
2018-04-10T20:58:24.237Z,2.87
2018-04-10T21:00:51.754Z,2.90
2018-04-10T21:03:20.006Z,2.92
2018-04-10T21:05:47.568Z,2.80
2018-04-10T21:08:15.073Z,2.58
2018-04-10T21:10:43.305Z,2.35
2018-04-10T21:13:11.711Z,2.30
2018-04-10T21:15:39.204Z,2.37
2018-04-10T21:18:06.692Z,2.33
2018-04-10T21:20:34.971Z,2.10
2018-04-10T21:23:03.258Z,2.40
2018-04-10T21:25:31.491Z,2.08
2018-04-10T21:27:58.943Z,2.33
2018-04-10T21:30:26.496Z,2.25
2018-04-10T21:32:53.959Z,2.20
2018-04-10T21:35:22.207Z,2.20
2018-04-10T21:37:49.690Z,2.03
2018-04-10T21:40:17.336Z,2.00
2018-04-10T21:42:50.499Z,2.10
2018-04-10T21:45:18.040Z,1.80
2018-04-10T21:47:45.522Z,2.00
2018-04-10T21:50:13.029Z,2.30
2018-04-10T21:52:40.500Z,1.95
2018-04-10T21:55:08.015Z,1.75
2018-04-10T21:57:35.525Z,1.98
2018-04-10T22:00:03.782Z,1.83
2018-04-10T22:02:31.288Z,1.90
2018-04-10T22:04:58.751Z,1.85
2018-04-10T22:07:26.220Z,1.98
2018-04-10T22:09:54.788Z,1.70
2018-04-10T22:12:22.281Z,1.70
2018-04-10T22:14:50.627Z,1.80
2018-04-10T22:17:18.510Z,1.90
2018-04-10T22:19:46.065Z,1.77
2018-04-10T22:22:13.551Z,1.70
2018-04-10T22:24:41.116Z,1.87
2018-04-10T22:27:08.597Z,1.73
2018-04-10T22:29:36.165Z,1.70
2018-04-10T22:32:03.639Z,1.80
2018-04-10T22:34:31.144Z,1.40
2018-04-10T22:36:58.642Z,1.52
2018-04-10T22:39:26.119Z,1.60
2018-04-10T22:41:53.582Z,1.50
2018-04-10T22:44:21.060Z,1.60
2018-04-10T22:46:48.581Z,1.50
2018-04-10T22:49:16.258Z,1.60
2018-04-10T22:51:43.757Z,1.60
2018-04-10T22:54:11.237Z,1.70
2018-04-10T22:56:38.983Z,1.65
2018-04-10T22:59:06.474Z,1.50
2018-04-10T23:01:33.944Z,1.60
2018-04-10T23:04:01.488Z,1.60
2018-04-10T23:06:29.041Z,1.50
2018-04-10T23:08:56.547Z,1.60
2018-04-10T23:11:24.175Z,1.80
2018-04-10T23:13:52.456Z,1.77
2018-04-10T23:16:20.082Z,1.67
2018-04-10T23:18:49.465Z,1.48
2018-04-10T23:21:17.724Z,1.80
2018-04-10T23:23:45.224Z,1.45
2018-04-10T23:26:13.549Z,1.60
2018-04-10T23:28:41.032Z,1.52
2018-04-10T23:31:08.557Z,1.50
2018-04-10T23:33:36.828Z,1.70
2018-04-10T23:36:04.360Z,1.60
2018-04-10T23:38:31.849Z,1.30
2018-04-10T23:40:59.330Z,1.70
2018-04-10T23:43:26.833Z,1.62
2018-04-10T23:45:55.158Z,1.73
2018-04-10T23:48:22.654Z,1.60
2018-04-10T23:50:50.177Z,1.52
2018-04-10T23:53:17.672Z,1.67
2018-04-10T23:55:45.162Z,1.70
2018-04-10T23:58:12.638Z,2.00
